createdAt,value
2019-05-20T00:00:46.250Z,102.55
2019-05-20T00:03:22.215Z,106.27
2019-05-20T00:05:57.676Z,113.37
2019-05-20T00:08:33.253Z,120.60
2019-05-20T00:11:08.761Z,115.30
2019-05-20T00:13:44.248Z,108.30
2019-05-20T00:16:19.667Z,99.60
2019-05-20T00:18:56.039Z,107.20
2019-05-20T00:21:31.553Z,98.00
2019-05-20T00:24:06.917Z,94.17
2019-05-20T00:26:42.468Z,110.90
2019-05-20T00:29:17.827Z,107.03
2019-05-20T00:31:53.368Z,113.65
2019-05-20T00:34:35.026Z,105.47
2019-05-20T00:37:05.963Z,93.17
2019-05-20T00:39:41.374Z,84.85
2019-05-20T00:42:17.091Z,97.95
2019-05-20T00:44:52.504Z,109.78
2019-05-20T00:47:28.023Z,96.35
2019-05-20T00:50:03.484Z,96.10
2019-05-20T00:52:39.129Z,101.85
2019-05-20T00:55:29.155Z,99.50
2019-05-20T00:58:04.597Z,95.40
2019-05-20T01:00:40.293Z,95.47
2019-05-20T01:03:15.705Z,84.10
2019-05-20T01:05:51.341Z,90.83
2019-05-20T01:08:26.947Z,98.07
2019-05-20T01:11:02.299Z,100.25
2019-05-20T01:13:37.750Z,87.60
2019-05-20T01:16:13.291Z,99.60
2019-05-20T01:18:48.676Z,105.37
2019-05-20T01:21:24.145Z,103.27
2019-05-20T01:23:59.734Z,99.15
2019-05-20T01:26:35.137Z,88.90
2019-05-20T01:29:10.547Z,105.83
2019-05-20T01:31:45.834Z,92.17
2019-05-20T01:34:21.244Z,89.30
2019-05-20T01:36:56.643Z,92.70
2019-05-20T01:39:32.167Z,102.27
2019-05-20T01:42:07.550Z,88.03
2019-05-20T01:44:43.338Z,100.85
2019-05-20T01:47:18.732Z,86.78
2019-05-20T01:49:54.485Z,77.82
2019-05-20T01:52:29.863Z,94.77
2019-05-20T01:55:06.055Z,83.37
2019-05-20T01:57:44.399Z,92.17
2019-05-20T02:00:20.002Z,82.92
2019-05-20T02:02:55.592Z,81.90
2019-05-20T02:05:31.019Z,86.12
2019-05-20T02:08:06.402Z,96.17
2019-05-20T02:10:41.903Z,90.60
2019-05-20T02:13:17.251Z,78.07
2019-05-20T02:16:02.744Z,75.35
2019-05-20T02:18:38.133Z,75.15
2019-05-20T02:21:13.693Z,71.90
2019-05-20T02:23:49.027Z,74.25
2019-05-20T02:26:24.561Z,77.45
2019-05-20T02:28:59.949Z,63.25
2019-05-20T02:31:35.745Z,69.87
2019-05-20T02:34:11.142Z,71.53
2019-05-20T02:36:46.642Z,71.15
2019-05-20T02:39:26.300Z,75.37
2019-05-20T02:41:59.250Z,70.15
2019-05-20T02:44:34.630Z,66.17
2019-05-20T02:47:10.072Z,76.45
2019-05-20T02:49:45.360Z,75.57
2019-05-20T02:52:20.787Z,66.22
2019-05-20T02:54:56.174Z,63.10
2019-05-20T02:57:31.755Z,75.50
2019-05-20T03:00:07.372Z,76.45
2019-05-20T03:02:42.794Z,80.15
2019-05-20T03:05:18.145Z,70.22
2019-05-20T03:07:53.576Z,65.47
2019-05-20T03:10:28.985Z,64.85
2019-05-20T03:13:05.385Z,63.52
2019-05-20T03:15:41.416Z,63.28
2019-05-20T03:18:16.846Z,60.50
2019-05-20T03:20:52.186Z,62.05
2019-05-20T03:23:27.606Z,64.85
2019-05-20T03:26:03.174Z,59.48
2019-05-20T03:28:38.587Z,65.47
2019-05-20T03:31:13.968Z,68.10
2019-05-20T03:33:49.399Z,61.48
2019-05-20T03:36:24.759Z,70.70
2019-05-20T03:39:00.169Z,59.67
2019-05-20T03:41:35.548Z,62.00
2019-05-20T03:44:10.990Z,64.65
2019-05-20T03:46:46.364Z,61.60
2019-05-20T03:49:21.882Z,63.05
2019-05-20T03:51:57.265Z,66.33
2019-05-20T03:54:32.689Z,63.30
2019-05-20T03:57:08.102Z,67.10
2019-05-20T03:59:43.524Z,65.30
2019-05-20T04:02:18.894Z,59.35
2019-05-20T04:05:02.398Z,64.65
2019-05-20T04:07:31.438Z,63.68
2019-05-20T04:10:08.220Z,63.90
2019-05-20T04:12:43.548Z,61.75
2019-05-20T04:15:18.924Z,58.58
2019-05-20T04:17:54.228Z,59.23
2019-05-20T04:20:29.600Z,64.87
2019-05-20T04:23:05.095Z,63.30
2019-05-20T04:25:40.566Z,64.77
2019-05-20T04:28:15.957Z,59.70
2019-05-20T04:30:51.444Z,64.17
2019-05-20T04:33:26.995Z,70.15
2019-05-20T04:36:02.418Z,61.80
2019-05-20T04:38:38.180Z,59.18
2019-05-20T04:41:13.609Z,54.45
2019-05-20T04:43:49.117Z,60.75
2019-05-20T04:46:24.535Z,50.55
2019-05-20T04:48:59.933Z,52.25
2019-05-20T04:51:35.428Z,54.00
2019-05-20T04:54:10.837Z,52.25
2019-05-20T04:56:46.515Z,52.75
2019-05-20T04:59:21.926Z,56.95
2019-05-20T05:01:57.245Z,51.35
2019-05-20T05:04:32.717Z,55.08
2019-05-20T05:07:08.179Z,54.65
2019-05-20T05:09:43.659Z,53.13
2019-05-20T05:12:19.125Z,51.83
2019-05-20T05:14:54.835Z,56.18
2019-05-20T05:17:30.230Z,54.83
2019-05-20T05:20:06.003Z,58.58
2019-05-20T05:22:41.417Z,59.38
2019-05-20T05:25:16.871Z,53.10
2019-05-20T05:27:52.329Z,51.63
2019-05-20T05:30:27.719Z,62.08
2019-05-20T05:33:03.197Z,52.93
2019-05-20T05:35:52.389Z,57.62
2019-05-20T05:38:15.688Z,60.55
2019-05-20T05:40:51.188Z,53.45
2019-05-20T05:43:26.638Z,52.62
2019-05-20T05:46:04.561Z,46.83
2019-05-20T05:48:39.975Z,52.90
2019-05-20T05:51:15.350Z,53.68
2019-05-20T05:53:50.710Z,52.33
2019-05-20T05:56:26.178Z,53.38
2019-05-20T05:59:01.871Z,51.98
2019-05-20T06:01:37.307Z,57.95
2019-05-20T06:04:12.735Z,52.38
2019-05-20T06:06:48.218Z,44.90
2019-05-20T06:09:23.643Z,51.83
2019-05-20T06:11:59.176Z,50.12
2019-05-20T06:14:34.616Z,52.13
2019-05-20T06:17:10.261Z,45.33
2019-05-20T06:19:45.788Z,51.37
2019-05-20T06:22:21.195Z,45.80
2019-05-20T06:24:58.651Z,46.90
2019-05-20T06:27:34.102Z,48.55
2019-05-20T06:30:10.885Z,45.55
2019-05-20T06:32:47.325Z,45.38
2019-05-20T06:35:22.735Z,40.55
2019-05-20T06:38:03.372Z,41.20
2019-05-20T06:40:38.764Z,39.92
2019-05-20T06:43:14.174Z,45.03
2019-05-20T06:45:49.679Z,40.33
2019-05-20T06:48:25.039Z,42.13
2019-05-20T06:51:00.455Z,43.40
2019-05-20T06:53:35.931Z,45.67
2019-05-20T06:56:11.364Z,45.40
2019-05-20T06:58:48.437Z,48.75
2019-05-20T07:01:24.206Z,45.00
2019-05-20T07:03:59.689Z,46.15
2019-05-20T07:06:45.786Z,45.23
2019-05-20T07:09:12.531Z,43.87
2019-05-20T07:11:52.935Z,47.43
2019-05-20T07:14:25.207Z,50.35
2019-05-20T07:17:04.871Z,49.63
2019-05-20T07:19:40.472Z,51.75
2019-05-20T07:22:15.939Z,52.88
2019-05-20T07:24:51.487Z,54.00
2019-05-20T07:27:26.934Z,50.55
2019-05-20T07:30:02.459Z,52.45
2019-05-20T07:32:38.484Z,58.65
2019-05-20T07:35:28.755Z,55.00
2019-05-20T07:37:51.086Z,60.83
2019-05-20T07:40:35.743Z,54.77
2019-05-20T07:43:11.327Z,53.10
2019-05-20T07:45:47.173Z,54.67
2019-05-20T07:48:22.745Z,55.50
2019-05-20T07:50:58.715Z,53.70
2019-05-20T07:53:35.135Z,55.65
2019-05-20T07:56:14.328Z,55.20
2019-05-20T07:58:52.831Z,55.55
2019-05-20T08:01:28.241Z,56.33
2019-05-20T08:04:03.675Z,53.68
2019-05-20T08:06:39.028Z,49.95
2019-05-20T08:09:14.409Z,47.98
2019-05-20T08:11:50.007Z,48.95
2019-05-20T08:14:25.495Z,47.85
2019-05-20T08:17:00.880Z,47.95
2019-05-20T08:19:36.479Z,48.83
2019-05-20T08:22:12.021Z,48.10
2019-05-20T08:24:47.593Z,46.88
2019-05-20T08:27:22.938Z,48.73
2019-05-20T08:29:58.444Z,46.50
2019-05-20T08:32:33.805Z,49.80
2019-05-20T08:35:09.283Z,50.05
2019-05-20T08:37:46.109Z,49.45
2019-05-20T08:40:21.928Z,46.25
2019-05-20T08:42:57.373Z,45.80
2019-05-20T08:45:33.093Z,44.38
2019-05-20T08:48:08.482Z,44.98
2019-05-20T08:50:43.986Z,43.50
2019-05-20T08:53:19.379Z,44.18
2019-05-20T08:55:59.346Z,41.13
2019-05-20T08:58:37.700Z,40.25
2019-05-20T09:01:13.230Z,45.43
2019-05-20T09:03:48.615Z,41.48
2019-05-20T09:06:24.327Z,39.83
2019-05-20T09:08:59.747Z,40.83
2019-05-20T09:11:35.231Z,41.83
2019-05-20T09:14:10.636Z,38.55
2019-05-20T09:16:46.206Z,37.10
2019-05-20T09:19:21.659Z,43.17
2019-05-20T09:21:57.039Z,43.55
2019-05-20T09:24:32.762Z,41.48
2019-05-20T09:27:08.185Z,38.88
2019-05-20T09:29:43.745Z,40.03
2019-05-20T09:32:19.300Z,37.17
2019-05-20T09:34:55.067Z,40.10
2019-05-20T09:37:31.551Z,36.55
2019-05-20T09:40:07.390Z,41.23
2019-05-20T09:42:44.428Z,42.90
2019-05-20T09:45:19.789Z,41.98
2019-05-20T09:47:55.329Z,46.85
2019-05-20T09:50:30.823Z,44.93
2019-05-20T09:53:07.522Z,43.28
2019-05-20T09:55:43.411Z,45.67
2019-05-20T09:58:18.981Z,42.55
2019-05-20T10:00:54.407Z,47.40
2019-05-20T10:03:29.907Z,47.88
2019-05-20T10:06:09.394Z,44.77
2019-05-20T10:08:46.595Z,46.45
2019-05-20T10:11:21.960Z,48.55
2019-05-20T10:13:58.528Z,46.42
2019-05-20T10:16:33.957Z,51.53
2019-05-20T10:19:11.745Z,51.28
2019-05-20T10:21:47.145Z,51.60
2019-05-20T10:24:22.546Z,54.98
2019-05-20T10:26:58.088Z,53.38
2019-05-20T10:29:33.427Z,52.13
2019-05-20T10:32:09.111Z,58.52
2019-05-20T10:34:44.558Z,56.68
2019-05-20T10:37:20.111Z,60.65
2019-05-20T10:39:55.563Z,63.25
2019-05-20T10:42:30.827Z,63.30
2019-05-20T10:45:07.267Z,59.30
2019-05-20T10:47:42.681Z,60.20
2019-05-20T10:50:19.806Z,58.25
2019-05-20T10:52:55.328Z,58.85
2019-05-20T10:55:31.895Z,60.67
2019-05-20T10:58:10.181Z,55.15
2019-05-20T11:01:01.100Z,60.98
2019-05-20T11:03:22.749Z,59.83
2019-05-20T11:05:59.278Z,56.55
2019-05-20T11:08:35.651Z,57.48
2019-05-20T11:11:14.129Z,56.58
2019-05-20T11:13:48.205Z,54.60
2019-05-20T11:16:23.782Z,56.40
2019-05-20T11:18:59.155Z,55.25
2019-05-20T11:21:34.566Z,57.48
2019-05-20T11:24:10.065Z,56.02
2019-05-20T11:26:45.571Z,56.23
2019-05-20T11:29:21.131Z,53.65
2019-05-20T11:31:56.608Z,54.85
2019-05-20T11:34:32.208Z,54.00
2019-05-20T11:37:08.918Z,54.53
2019-05-20T11:39:44.401Z,54.53
2019-05-20T11:42:19.889Z,55.78
2019-05-20T11:44:58.137Z,57.90
2019-05-20T11:47:33.629Z,54.10
2019-05-20T11:50:09.808Z,49.95
2019-05-20T11:52:45.259Z,48.75
2019-05-20T11:55:20.705Z,46.85
2019-05-20T11:58:14.011Z,50.33
2019-05-20T12:00:34.308Z,42.62
2019-05-20T12:03:09.902Z,43.48
2019-05-20T12:05:45.432Z,44.80
2019-05-20T12:08:20.970Z,43.42
2019-05-20T12:10:57.245Z,47.67
2019-05-20T12:13:33.430Z,48.45
2019-05-20T12:16:08.899Z,43.02
2019-05-20T12:18:45.235Z,45.85
2019-05-20T12:21:20.769Z,48.95
2019-05-20T12:23:56.326Z,49.65
2019-05-20T12:26:31.747Z,52.53
2019-05-20T12:29:07.519Z,53.08
2019-05-20T12:31:42.941Z,50.33
2019-05-20T12:34:18.582Z,50.95
2019-05-20T12:36:53.961Z,50.05
2019-05-20T12:39:29.487Z,47.88
2019-05-20T12:42:04.924Z,50.15
2019-05-20T12:44:41.405Z,49.93
2019-05-20T12:47:16.937Z,48.78
2019-05-20T12:49:52.712Z,50.03
2019-05-20T12:52:28.134Z,47.08
2019-05-20T12:55:08.551Z,46.08
2019-05-20T12:57:42.314Z,48.00
2019-05-20T13:00:19.619Z,47.65
2019-05-20T13:02:54.987Z,51.50
2019-05-20T13:05:30.505Z,51.68
2019-05-20T13:08:06.307Z,53.60
2019-05-20T13:10:41.751Z,53.20
2019-05-20T13:13:17.124Z,54.35
2019-05-20T13:15:52.567Z,56.98
2019-05-20T13:18:28.032Z,56.02
2019-05-20T13:21:03.996Z,56.80
2019-05-20T13:23:39.511Z,57.10
2019-05-20T13:26:14.940Z,56.25
2019-05-20T13:28:50.314Z,58.50
2019-05-20T13:31:25.758Z,60.50
2019-05-20T13:34:01.248Z,55.30
2019-05-20T13:36:37.902Z,59.75
2019-05-20T13:39:13.306Z,61.13
2019-05-20T13:41:48.884Z,60.90
2019-05-20T13:44:24.411Z,59.95
2019-05-20T13:47:00.037Z,57.78
2019-05-20T13:49:35.592Z,58.68
2019-05-20T13:52:11.486Z,60.90
2019-05-20T13:54:46.945Z,62.80
2019-05-20T13:57:22.509Z,62.05
2019-05-20T13:59:57.938Z,64.03
2019-05-20T14:02:33.453Z,64.82
2019-05-20T14:05:08.995Z,68.87
2019-05-20T14:07:44.799Z,72.53
2019-05-20T14:10:21.800Z,70.42
2019-05-20T14:12:57.242Z,69.62
2019-05-20T14:15:32.789Z,71.40
2019-05-20T14:18:11.281Z,64.37
2019-05-20T14:20:50.589Z,63.63
2019-05-20T14:23:26.787Z,65.03
2019-05-20T14:26:02.370Z,68.20
2019-05-20T14:28:38.081Z,61.10
2019-05-20T14:31:13.961Z,58.95
2019-05-20T14:33:49.480Z,62.85
2019-05-20T14:36:38.462Z,61.73
2019-05-20T14:39:06.450Z,64.00
2019-05-20T14:41:42.228Z,62.93
2019-05-20T14:44:17.562Z,62.33
2019-05-20T14:46:53.046Z,59.90
2019-05-20T14:49:28.568Z,62.85
2019-05-20T14:52:04.123Z,62.30
2019-05-20T14:54:40.201Z,61.63
2019-05-20T14:57:15.651Z,63.80
2019-05-20T14:59:51.802Z,61.95
2019-05-20T15:02:30.737Z,64.15
2019-05-20T15:05:04.622Z,64.82
2019-05-20T15:07:40.203Z,71.77
2019-05-20T15:10:15.904Z,69.47
2019-05-20T15:12:51.416Z,73.12
2019-05-20T15:15:26.867Z,65.55
2019-05-20T15:18:02.311Z,62.73
2019-05-20T15:20:38.015Z,64.30
2019-05-20T15:23:18.044Z,62.78
2019-05-20T15:25:53.766Z,61.42
2019-05-20T15:28:29.120Z,59.10
2019-05-20T15:31:04.544Z,62.15
2019-05-20T15:33:47.231Z,60.55
2019-05-20T15:36:22.742Z,59.05
2019-05-20T15:38:58.160Z,60.55
2019-05-20T15:41:33.544Z,54.33
2019-05-20T15:44:10.085Z,54.88
2019-05-20T15:46:45.489Z,57.43
2019-05-20T15:49:20.930Z,56.77
2019-05-20T15:51:56.348Z,53.58
2019-05-20T15:54:31.674Z,53.17
2019-05-20T15:57:07.223Z,52.48
2019-05-20T15:59:46.114Z,55.08
2019-05-20T16:02:19.701Z,53.13
2019-05-20T16:04:55.058Z,55.30
2019-05-20T16:07:30.561Z,53.38
2019-05-20T16:10:06.667Z,56.08
2019-05-20T16:12:42.296Z,56.15
2019-05-20T16:15:19.123Z,60.25
2019-05-20T16:17:54.565Z,54.42
2019-05-20T16:20:31.152Z,48.28
2019-05-20T16:23:06.748Z,45.95
2019-05-20T16:25:42.171Z,45.23
2019-05-20T16:28:17.637Z,42.62
2019-05-20T16:30:53.119Z,46.53
2019-05-20T16:33:28.618Z,44.95
2019-05-20T16:36:04.580Z,40.23
2019-05-20T16:38:40.205Z,43.20
2019-05-20T16:41:15.621Z,40.85
2019-05-20T16:43:51.265Z,43.90
2019-05-20T16:46:26.688Z,40.85
2019-05-20T16:49:02.114Z,39.18
2019-05-20T16:51:41.552Z,38.45
2019-05-20T16:54:17.063Z,35.95
2019-05-20T16:56:52.644Z,38.63
2019-05-20T16:59:31.022Z,36.83
2019-05-20T17:02:09.112Z,35.40
2019-05-20T17:04:43.897Z,37.75
2019-05-20T17:07:19.344Z,35.43
2019-05-20T17:09:54.960Z,34.95
2019-05-20T17:12:30.805Z,33.80
2019-05-20T17:15:06.863Z,32.73
2019-05-20T17:17:42.363Z,33.20
2019-05-20T17:20:18.109Z,32.23
2019-05-20T17:22:53.570Z,36.40
2019-05-20T17:25:29.475Z,31.65
2019-05-20T17:28:04.811Z,30.77
2019-05-20T17:30:45.558Z,30.15
2019-05-20T17:33:17.441Z,31.42
2019-05-20T17:35:53.309Z,31.35
2019-05-20T17:38:28.764Z,29.32
2019-05-20T17:41:04.452Z,32.17
2019-05-20T17:43:39.883Z,31.90
2019-05-20T17:46:17.613Z,30.48
2019-05-20T17:48:53.128Z,31.57
2019-05-20T17:51:28.683Z,32.75
2019-05-20T17:54:04.190Z,33.05
2019-05-20T17:56:39.710Z,33.13
2019-05-20T17:59:15.056Z,33.35
2019-05-20T18:01:51.543Z,32.85
2019-05-20T18:04:27.084Z,33.53
2019-05-20T18:07:02.586Z,34.83
2019-05-20T18:09:41.629Z,36.48
2019-05-20T18:12:17.207Z,37.60
2019-05-20T18:14:55.335Z,36.68
2019-05-20T18:17:30.809Z,37.93
2019-05-20T18:20:06.470Z,35.73
2019-05-20T18:22:41.991Z,38.60
2019-05-20T18:25:17.403Z,36.23
2019-05-20T18:27:52.840Z,38.78
2019-05-20T18:30:28.281Z,35.20
2019-05-20T18:33:03.723Z,35.48
2019-05-20T18:35:39.135Z,31.80
2019-05-20T18:38:14.663Z,31.52
2019-05-20T18:40:50.058Z,33.60
2019-05-20T18:43:25.771Z,32.80
2019-05-20T18:46:02.416Z,33.25
2019-05-20T18:48:37.967Z,35.03
2019-05-20T18:51:16.873Z,37.08
2019-05-20T18:53:52.398Z,39.92
2019-05-20T18:56:28.035Z,39.33
2019-05-20T18:59:03.527Z,38.10
2019-05-20T19:01:55.847Z,40.38
2019-05-20T19:04:17.186Z,41.60
2019-05-20T19:06:52.771Z,41.37
2019-05-20T19:09:28.352Z,40.40
2019-05-20T19:12:03.999Z,39.63
2019-05-20T19:14:39.428Z,41.18
2019-05-20T19:17:14.872Z,40.52
2019-05-20T19:19:50.534Z,37.73
2019-05-20T19:22:25.969Z,37.42
2019-05-20T19:25:02.899Z,41.75
2019-05-20T19:27:38.693Z,39.45
2019-05-20T19:30:14.348Z,39.38
2019-05-20T19:32:50.832Z,42.55
2019-05-20T19:35:30.848Z,40.50
2019-05-20T19:38:09.524Z,43.38
2019-05-20T19:40:45.118Z,42.33
2019-05-20T19:43:23.473Z,42.23
2019-05-20T19:45:59.130Z,44.77
2019-05-20T19:48:39.767Z,46.58
2019-05-20T19:51:25.354Z,45.33
2019-05-20T19:54:02.101Z,48.35
2019-05-20T19:56:37.828Z,47.73
2019-05-20T19:59:13.228Z,48.55
2019-05-20T20:01:54.756Z,48.80
2019-05-20T20:04:30.089Z,48.00
2019-05-20T20:07:08.723Z,51.92
2019-05-20T20:09:44.225Z,51.77
2019-05-20T20:12:19.867Z,57.75
2019-05-20T20:14:55.255Z,56.25
2019-05-20T20:17:30.850Z,56.40
2019-05-20T20:20:06.430Z,57.88
2019-05-20T20:22:42.022Z,54.00
2019-05-20T20:25:18.511Z,58.28
2019-05-20T20:27:56.250Z,62.43
2019-05-20T20:30:31.656Z,59.90
2019-05-20T20:33:07.947Z,61.42
2019-05-20T20:35:43.432Z,60.73
2019-05-20T20:38:19.256Z,64.30
2019-05-20T20:40:54.770Z,64.82
2019-05-20T20:43:32.252Z,63.80
2019-05-20T20:46:07.648Z,64.70
2019-05-20T20:48:43.254Z,63.05
2019-05-20T20:51:18.654Z,65.30
2019-05-20T20:53:54.096Z,65.00
2019-05-20T20:56:29.475Z,62.35
2019-05-20T20:59:04.998Z,61.25
2019-05-20T21:01:40.448Z,60.03
2019-05-20T21:04:15.862Z,56.70
2019-05-20T21:06:51.201Z,55.65
2019-05-20T21:09:26.703Z,54.18
2019-05-20T21:12:02.192Z,55.43
2019-05-20T21:14:37.635Z,57.25
2019-05-20T21:17:13.153Z,56.37
2019-05-20T21:19:48.589Z,54.70
2019-05-20T21:22:23.967Z,53.30
2019-05-20T21:24:59.437Z,52.80
2019-05-20T21:27:34.784Z,53.92
2019-05-20T21:30:10.564Z,51.53
2019-05-20T21:32:45.950Z,52.17
2019-05-20T21:35:24.357Z,52.40
2019-05-20T21:37:59.777Z,51.88
2019-05-20T21:40:36.287Z,52.95
2019-05-20T21:43:11.657Z,53.98
2019-05-20T21:45:47.082Z,57.08
2019-05-20T21:48:22.488Z,54.80
2019-05-20T21:50:57.913Z,56.18
2019-05-20T21:53:33.345Z,56.18
2019-05-20T21:56:10.324Z,54.25
2019-05-20T21:58:45.678Z,57.27
2019-05-20T22:01:21.157Z,52.05
2019-05-20T22:03:56.618Z,52.17
2019-05-20T22:06:32.188Z,52.50
2019-05-20T22:09:07.832Z,49.55
2019-05-20T22:11:43.480Z,50.10
2019-05-20T22:14:18.817Z,51.05
2019-05-20T22:16:54.247Z,50.17
2019-05-20T22:19:30.704Z,49.67
2019-05-20T22:22:31.049Z,50.65
2019-05-20T22:25:06.776Z,50.08
2019-05-20T22:27:42.235Z,48.20
2019-05-20T22:30:17.651Z,46.90
2019-05-20T22:32:56.742Z,48.20
2019-05-20T22:35:32.310Z,48.40
2019-05-20T22:38:07.714Z,48.23
2019-05-20T22:40:42.995Z,48.73
2019-05-20T22:43:18.530Z,47.98
2019-05-20T22:45:53.903Z,50.17
2019-05-20T22:48:29.219Z,48.80
2019-05-20T22:51:04.721Z,52.23
2019-05-20T22:53:40.248Z,54.55
2019-05-20T22:56:15.680Z,54.70
2019-05-20T22:58:50.986Z,57.10
2019-05-20T23:01:26.423Z,56.73
2019-05-20T23:04:01.991Z,52.35
2019-05-20T23:06:37.433Z,51.20
2019-05-20T23:09:14.907Z,51.08
2019-05-20T23:11:49.925Z,47.75
2019-05-20T23:14:25.572Z,49.42
2019-05-20T23:17:00.930Z,50.92
2019-05-20T23:19:36.351Z,50.30
2019-05-20T23:22:11.738Z,50.58
2019-05-20T23:24:47.241Z,48.87
2019-05-20T23:27:22.596Z,48.85
2019-05-20T23:29:57.996Z,49.35
2019-05-20T23:32:33.277Z,48.35
2019-05-20T23:35:08.772Z,49.93
2019-05-20T23:37:45.722Z,51.98
2019-05-20T23:40:21.199Z,51.30
2019-05-20T23:42:56.570Z,52.25
2019-05-20T23:45:32.023Z,55.03
2019-05-20T23:48:07.589Z,50.00
2019-05-20T23:50:43.053Z,51.33
2019-05-20T23:53:18.427Z,53.98
2019-05-20T23:55:53.867Z,53.73
2019-05-20T23:58:29.265Z,51.85
